Time;durP1;ratioP1;P1;durP2;ratioP2;P2;SDS_P1;SDS_P2;PMS_P1;PMS_P2;Temp;Humidity;BMP_temperature;BMP_pressure;BME280_temperature;BME280_humidity;BME280_pressure;Samples;Min_cycle;Max_cycle;Signal;HPM_P1;HPM_P2
2022/10/21 00:02:24;;;;;;;15.25;3.42;;;;;;;15.93;100.00;100739.78;5224738;28;20032;-71
2022/10/21 00:04:55;;;;;;;5.07;2.60;;;;;;;15.85;100.00;100738.09;5257012;28;20039;-71
2022/10/21 00:07:25;;;;;;;11.55;3.47;;;;;;;15.76;100.00;100744.72;5224702;28;20021;-71
2022/10/21 00:09:56;;;;;;;10.30;3.17;;;;;;;15.70;100.00;100743.66;5224757;28;20418;-71
2022/10/21 00:12:28;;;;;;;8.45;2.53;;;;;;;15.66;100.00;100738.84;5224916;28;20023;-71
2022/10/21 00:14:58;;;;;;;11.15;3.20;;;;;;;15.58;100.00;100736.31;5224233;28;20029;-71
2022/10/21 00:17:29;;;;;;;7.35;2.88;;;;;;;15.59;100.00;100725.28;5224386;28;20676;-70
2022/10/21 00:19:59;;;;;;;10.60;2.70;;;;;;;15.60;100.00;100729.66;5224810;28;20017;-71
2022/10/21 00:22:30;;;;;;;6.00;3.40;;;;;;;15.63;100.00;100729.28;5224530;28;20103;-71
2022/10/21 00:25:00;;;;;;;10.27;3.60;;;;;;;15.61;100.00;100728.59;5224722;28;20059;-71
2022/10/21 00:27:31;;;;;;;7.55;2.50;;;;;;;15.60;100.00;100737.75;5223789;28;20514;-70
2022/10/21 00:30:03;;;;;;;11.15;3.20;;;;;;;15.57;100.00;100740.06;5224504;28;20642;-71
2022/10/21 00:32:34;;;;;;;6.68;2.67;;;;;;;15.48;100.00;100729.41;5224040;28;20051;-70
2022/10/21 00:35:04;;;;;;;7.45;2.95;;;;;;;15.45;100.00;100718.13;5224357;28;20061;-71
2022/10/21 00:37:35;;;;;;;13.20;2.83;;;;;;;15.41;100.00;100714.16;5223213;28;20032;-70
2022/10/21 00:40:06;;;;;;;5.70;2.45;;;;;;;15.34;100.00;100711.44;5224230;28;20040;-70
2022/10/21 00:42:39;;;;;;;4.50;2.35;;;;;;;15.35;100.00;100712.28;5224326;28;20040;-70
2022/10/21 00:45:16;;;;;;;5.40;2.50;;;;;;;15.33;100.00;100711.66;5223990;28;20052;-71
2022/10/21 00:47:58;;;;;;;7.10;2.20;;;;;;;15.27;100.00;100708.72;5223546;28;20082;-71
2022/10/21 00:50:52;;;;;;;3.22;2.03;;;;;;;15.23;100.00;100696.63;5223876;28;20502;-71
2022/10/21 00:53:23;;;;;;;6.60;2.45;;;;;;;15.20;100.00;100691.63;5223746;28;20052;-71
2022/10/21 00:56:04;;;;;;;10.45;2.20;;;;;;;15.11;100.00;100690.16;5224170;28;20521;-71
2022/10/21 00:58:36;;;;;;;4.70;2.28;;;;;;;15.05;100.00;100685.50;5222461;28;20035;-71
2022/10/21 01:01:07;;;;;;;6.38;2.25;;;;;;;14.97;100.00;100689.22;5223884;28;20495;-71
2022/10/21 01:03:37;;;;;;;5.68;1.85;;;;;;;14.91;100.00;100695.44;5224403;28;20017;-71
2022/10/21 01:06:10;;;;;;;8.65;2.13;;;;;;;14.86;100.00;100689.78;5223831;28;20144;-71
2022/10/21 01:08:40;;;;;;;5.50;2.30;;;;;;;14.83;100.00;100684.78;5223259;28;20430;-71
2022/10/21 01:11:14;;;;;;;4.55;2.10;;;;;;;14.79;100.00;100680.78;5223150;28;20021;-71
2022/10/21 01:14:03;;;;;;;9.52;2.25;;;;;;;14.76;100.00;100682.03;5223917;28;20024;-71
2022/10/21 01:17:01;;;;;;;7.72;2.63;;;;;;;14.70;100.00;100674.69;5223542;28;20033;-71
2022/10/21 01:19:45;;;;;;;5.57;2.38;;;;;;;14.67;100.00;100675.13;5223231;28;20402;-71
2022/10/21 01:22:49;;;;;;;6.10;2.10;;;;;;;14.61;100.00;100672.34;5223829;28;20021;-71
2022/10/21 01:25:56;;;;;;;6.80;2.13;;;;;;;14.50;100.00;100665.63;5223780;28;20070;-71
2022/10/21 01:28:34;;;;;;;11.77;2.50;;;;;;;14.41;100.00;100659.53;5213613;28;20067;-71
2022/10/21 01:31:04;;;;;;;6.60;2.30;;;;;;;14.41;100.00;100664.94;5223193;28;20108;-71
2022/10/21 01:33:41;;;;;;;5.70;2.42;;;;;;;14.41;100.00;100659.53;5223407;28;20566;-71
2022/10/21 01:36:36;;;;;;;11.95;2.40;;;;;;;14.42;100.00;100660.38;5223320;28;20095;-71
2022/10/21 01:39:21;;;;;;;11.07;2.72;;;;;;;14.39;100.00;100650.78;5222892;28;20029;-71
2022/10/21 01:42:06;;;;;;;10.85;2.42;;;;;;;14.43;100.00;100645.81;5223365;28;20074;-71
2022/10/21 01:44:51;;;;;;;6.70;1.90;;;;;;;14.42;100.00;100642.31;5223619;28;20033;-71
2022/10/21 01:47:30;;;;;;;7.00;2.13;;;;;;;14.38;100.00;100632.91;5222452;28;20028;-71
2022/10/21 01:50:04;;;;;;;5.22;2.13;;;;;;;14.35;100.00;100638.69;5223213;28;20044;-71
2022/10/21 01:52:36;;;;;;;7.85;2.42;;;;;;;14.32;100.00;100627.47;5223004;28;20028;-71
2022/10/21 01:55:13;;;;;;;6.90;2.10;;;;;;;14.27;100.00;100632.63;5223358;28;20021;-71
2022/10/21 01:57:51;;;;;;;5.72;1.98;;;;;;;14.22;100.00;100628.66;5222863;28;20028;-71
2022/10/21 02:00:22;;;;;;;9.88;1.85;;;;;;;14.24;100.00;100625.75;5223212;28;20410;-71
2022/10/21 02:02:53;;;;;;;8.07;1.90;;;;;;;14.24;100.00;100626.59;5223142;28;20108;-71
2022/10/21 02:05:29;;;;;;;6.20;2.17;;;;;;;14.23;100.00;100616.81;5222713;28;20017;-71
2022/10/21 02:08:00;;;;;;;5.90;2.08;;;;;;;14.22;100.00;100627.81;5222600;28;20115;-71
2022/10/21 02:10:41;;;;;;;5.68;2.63;;;;;;;14.20;100.00;100621.78;5223167;28;20113;-71
2022/10/21 02:13:16;;;;;;;10.57;2.50;;;;;;;14.16;100.00;100620.50;5222830;28;20029;-71
2022/10/21 02:15:47;;;;;;;;;;;;;;;14.07;100.00;100619.81;5223022;28;20043;-71
2022/10/21 02:18:23;;;;;;;7.88;1.70;;;;;;;13.98;100.00;100618.28;5222489;28;20378;-71
2022/10/21 02:20:58;;;;;;;6.38;1.95;;;;;;;13.92;100.00;100622.59;5222973;28;20044;-71
2022/10/21 02:24:02;;;;;;;4.40;1.77;;;;;;;13.80;100.00;100618.72;5223197;28;20029;-71
2022/10/21 02:26:32;;;;;;;8.02;1.60;;;;;;;13.76;100.00;100611.25;5211082;28;20033;-71
2022/10/21 02:29:03;;;;;;;13.27;2.70;;;;;;;13.68;100.00;100613.00;5222275;28;20060;-71
2022/10/21 02:31:43;;;;;;;4.95;1.90;;;;;;;13.62;100.00;100608.41;5222917;28;20021;-71
2022/10/21 02:34:29;;;;;;;5.80;1.80;;;;;;;13.59;100.00;100605.25;5222398;28;20025;-71
2022/10/21 02:37:13;;;;;;;5.78;1.77;;;;;;;13.52;100.00;100598.97;5222088;28;20028;-71
2022/10/21 02:39:54;;;;;;;7.07;1.95;;;;;;;13.41;100.00;100601.13;5223214;28;20104;-71
2022/10/21 02:42:30;;;;;;;9.70;2.45;;;;;;;13.34;100.00;100594.00;5223074;28;20029;-71
2022/10/21 02:45:02;;;;;;;8.43;2.53;;;;;;;13.24;100.00;100593.47;5222354;28;20104;-71
2022/10/21 02:47:35;;;;;;;5.45;1.95;;;;;;;13.13;100.00;100595.59;5222348;28;20094;-71
2022/10/21 02:50:06;;;;;;;6.13;1.80;;;;;;;13.05;100.00;100608.31;5221249;28;20044;-71
2022/10/21 02:52:37;;;;;;;6.55;2.25;;;;;;;12.92;100.00;100595.53;5222708;28;20029;-71
2022/10/21 02:55:07;;;;;;;7.10;1.73;;;;;;;12.81;100.00;100598.72;5222220;28;20618;-71
2022/10/21 02:57:38;;;;;;;9.80;2.53;;;;;;;12.73;100.00;100599.63;5211858;28;20116;-71
2022/10/21 03:00:09;;;;;;;6.40;2.35;;;;;;;12.60;100.00;100605.69;5221949;28;20020;-71
2022/10/21 03:02:41;;;;;;;6.18;2.13;;;;;;;12.50;100.00;100594.34;5226679;28;20527;-71
2022/10/21 03:05:11;;;;;;;5.18;2.10;;;;;;;12.40;100.00;100588.41;5226126;28;20074;-71
2022/10/21 03:07:42;;;;;;;6.30;2.40;;;;;;;12.35;100.00;100586.28;5225429;28;20418;-71
2022/10/21 03:10:12;;;;;;;6.53;2.33;;;;;;;12.30;100.00;100590.50;5225980;28;20498;-71
2022/10/21 03:12:43;;;;;;;5.90;2.00;;;;;;;12.25;100.00;100587.53;5226075;28;20029;-71
2022/10/21 03:15:13;;;;;;;9.15;2.45;;;;;;;12.17;100.00;100580.41;5226006;28;20053;-71
2022/10/21 03:17:45;;;;;;;8.70;2.63;;;;;;;12.14;100.00;100580.75;5225156;28;20029;-71
2022/10/21 03:20:16;;;;;;;6.50;2.30;;;;;;;12.08;100.00;100581.50;5225548;28;20029;-71
2022/10/21 03:22:46;;;;;;;7.88;1.92;;;;;;;12.02;100.00;100591.13;5225821;28;20100;-71
2022/10/21 03:25:17;;;;;;;7.60;2.38;;;;;;;11.96;100.00;100580.28;5225703;28;20043;-71
2022/10/21 03:27:50;;;;;;;12.30;2.70;;;;;;;11.91;100.00;100572.75;5225096;28;20096;-71
2022/10/21 03:30:21;;;;;;;5.75;2.20;;;;;;;11.87;100.00;100574.13;5225125;28;20025;-71
2022/10/21 03:32:51;;;;;;;9.40;2.35;;;;;;;11.79;100.00;100577.66;5225173;28;20056;-71
2022/10/21 03:35:22;;;;;;;7.30;2.38;;;;;;;11.74;100.00;100573.84;5225437;28;20025;-71
2022/10/21 03:37:52;;;;;;;10.13;3.17;;;;;;;11.70;100.00;100577.91;5225011;28;20066;-71
2022/10/21 03:40:28;;;;;;;11.75;2.95;;;;;;;11.64;100.00;100576.78;5225304;28;20112;-71
2022/10/21 03:42:59;;;;;;;7.63;2.00;;;;;;;11.63;100.00;100575.13;5225480;28;20035;-71
2022/10/21 03:45:29;;;;;;;7.18;2.80;;;;;;;11.63;100.00;100583.19;5224998;28;20107;-71
2022/10/21 03:48:00;;;;;;;4.50;1.52;;;;;;;11.56;100.00;100583.06;5224806;28;20048;-71
2022/10/21 03:50:30;;;;;;;5.47;1.75;;;;;;;11.50;100.00;100594.53;5225071;28;20111;-71
2022/10/21 03:53:01;;;;;;;3.90;1.92;;;;;;;11.45;100.00;100588.88;5225111;28;20506;-71
2022/10/21 03:55:31;;;;;;;8.75;2.38;;;;;;;11.43;100.00;100598.94;5224750;28;20053;-71
2022/10/21 03:58:02;;;;;;;5.95;1.80;;;;;;;11.40;100.00;100602.00;5224911;28;20025;-71
2022/10/21 04:00:33;;;;;;;6.53;2.13;;;;;;;11.37;100.00;100589.75;5224879;28;20626;-71
2022/10/21 04:03:03;;;;;;;6.13;1.98;;;;;;;11.36;100.00;100592.59;5224850;28;20025;-71
2022/10/21 04:05:34;;;;;;;8.43;2.38;;;;;;;11.33;100.00;100590.25;5224988;28;20494;-71
2022/10/21 04:08:04;;;;;;;7.55;2.13;;;;;;;11.29;100.00;100586.25;5223809;28;20032;-71
2022/10/21 04:10:35;;;;;;;6.55;2.05;;;;;;;11.25;100.00;100585.78;5224650;28;20100;-71
2022/10/21 04:13:05;;;;;;;5.80;2.33;;;;;;;11.25;100.00;100593.84;5224708;28;20552;-71
2022/10/21 04:15:35;;;;;;;5.97;2.05;;;;;;;11.26;100.00;100594.69;5224863;28;20028;-71
2022/10/21 04:18:06;;;;;;;6.90;2.22;;;;;;;11.25;100.00;100588.47;5223961;28;20074;-71
2022/10/21 04:20:37;;;;;;;5.90;2.50;;;;;;;11.29;100.00;100588.94;5224118;28;20032;-71
2022/10/21 04:23:07;;;;;;;9.43;3.38;;;;;;;11.32;100.00;100589.44;5224781;28;20028;-71
2022/10/21 04:25:38;;;;;;;8.43;2.42;;;;;;;11.33;100.00;100585.72;5224401;28;20025;-71
2022/10/21 04:28:08;;;;;;;5.47;2.00;;;;;;;11.33;100.00;100590.25;5224126;28;20112;-71
2022/10/21 04:30:39;;;;;;;4.25;2.38;;;;;;;11.34;100.00;100587.38;5223844;28;20029;-71
2022/10/21 04:33:09;;;;;;;5.60;2.20;;;;;;;11.36;100.00;100585.38;5223956;28;20033;-71
2022/10/21 04:35:40;;;;;;;7.43;3.22;;;;;;;11.38;100.00;100585.19;5224419;28;20497;-71
2022/10/21 04:38:10;;;;;;;7.85;1.92;;;;;;;11.38;100.00;100580.66;5223707;28;20032;-71
2022/10/21 04:40:41;;;;;;;15.85;3.05;;;;;;;11.41;100.00;100584.84;5223972;28;20021;-71
2022/10/21 04:43:11;;;;;;;5.53;2.60;;;;;;;11.42;100.00;100589.22;5224501;28;20035;-71
2022/10/21 04:45:42;;;;;;;8.65;3.10;;;;;;;11.45;100.00;100591.53;5223588;28;20021;-71
2022/10/21 04:48:12;;;;;;;6.97;2.55;;;;;;;11.54;100.00;100584.25;5223518;28;20059;-71
2022/10/21 04:50:43;;;;;;;8.00;2.60;;;;;;;11.60;100.00;100584.38;5224044;28;20104;-71
2022/10/21 04:53:13;;;;;;;5.85;2.45;;;;;;;11.65;100.00;100583.84;5223902;28;20021;-71
2022/10/21 04:55:44;;;;;;;6.72;2.60;;;;;;;11.68;100.00;100578.94;5224063;28;20040;-71
2022/10/21 04:58:14;;;;;;;9.57;2.15;;;;;;;11.68;100.00;100576.25;5222792;28;20032;-71
2022/10/21 05:00:45;;;;;;;5.50;2.53;;;;;;;11.67;100.00;100565.69;5223850;28;20021;-71
2022/10/21 05:03:15;;;;;;;7.65;2.78;;;;;;;11.72;100.00;100573.22;5223901;28;20029;-71
2022/10/21 05:05:50;;;;;;;8.80;2.55;;;;;;;11.72;100.00;100573.22;5223740;28;20036;-71
2022/10/21 05:08:21;;;;;;;5.50;2.58;;;;;;;11.72;100.00;100570.53;5223172;28;20082;-72
2022/10/21 05:11:01;;;;;;;7.93;2.80;;;;;;;11.73;100.00;100575.72;5223899;28;20032;-71
2022/10/21 05:13:32;;;;;;;7.00;2.40;;;;;;;11.74;100.00;100576.53;5223296;28;20093;-71
2022/10/21 05:16:03;;;;;;;9.02;3.10;;;;;;;11.76;100.00;100577.22;5223796;28;20112;-71
2022/10/21 05:18:33;;;;;;;13.27;3.17;;;;;;;11.80;100.00;100571.31;5223252;28;20032;-71
2022/10/21 05:21:04;;;;;;;5.82;2.72;;;;;;;11.84;100.00;100569.94;5223111;28;20429;-71
2022/10/21 05:23:34;;;;;;;8.60;2.80;;;;;;;11.91;100.00;100564.69;5223128;28;20036;-72
2022/10/21 05:26:05;;;;;;;5.05;2.60;;;;;;;11.97;100.00;100565.81;5223203;28;20025;-71
2022/10/21 05:28:35;;;;;;;6.25;2.70;;;;;;;11.97;100.00;100563.13;5223069;28;20029;-71
2022/10/21 05:31:06;;;;;;;18.00;3.80;;;;;;;11.98;100.00;100554.84;5222908;28;20060;-71
2022/10/21 05:33:36;;;;;;;9.68;3.58;;;;;;;11.99;100.00;100555.69;5222995;28;20141;-71
2022/10/21 05:36:07;;;;;;;11.05;3.08;;;;;;;11.98;100.00;100554.84;5223480;28;20031;-71
2022/10/21 05:38:38;;;;;;;8.35;2.67;;;;;;;12.00;100.00;100551.97;5222917;28;20036;-71
2022/10/21 05:41:09;;;;;;;7.88;2.92;;;;;;;12.03;100.00;100544.38;5223392;28;20487;-72
2022/10/21 05:43:40;;;;;;;8.73;3.20;;;;;;;12.07;100.00;100547.56;5223429;28;20025;-73
2022/10/21 05:46:10;;;;;;;7.30;3.17;;;;;;;12.12;100.00;100542.47;5222972;28;20025;-73
2022/10/21 05:48:41;;;;;;;11.60;3.65;;;;;;;12.16;100.00;100546.47;5223227;28;20637;-72
2022/10/21 05:51:11;;;;;;;13.38;3.65;;;;;;;12.22;100.00;100547.56;5225911;28;20546;-73
2022/10/21 05:53:42;;;;;;;10.85;2.88;;;;;;;12.26;100.00;100551.56;5224283;28;20053;-72
2022/10/21 05:56:12;;;;;;;10.73;2.85;;;;;;;12.31;100.00;100543.78;5223852;28;20049;-72
2022/10/21 05:58:43;;;;;;;8.10;2.95;;;;;;;12.35;100.00;100545.06;5222615;28;20060;-72
2022/10/21 06:01:13;;;;;;;12.25;3.75;;;;;;;12.38;100.00;100534.78;5223682;28;20029;-73
2022/10/21 06:03:43;;;;;;;10.45;4.18;;;;;;;12.42;100.00;100528.00;5226401;28;20021;-72
2022/10/21 06:06:14;;;;;;;11.60;4.30;;;;;;;12.47;100.00;100527.44;5226227;28;20391;-72
2022/10/21 06:08:45;;;;;;;7.80;4.35;;;;;;;12.50;100.00;100518.16;5225264;28;20394;-72
2022/10/21 06:11:17;;;;;;;16.58;4.85;;;;;;;12.51;100.00;100523.38;5224481;28;20036;-72
2022/10/21 06:13:48;;;;;;;21.88;4.60;;;;;;;12.54;100.00;100532.91;5223009;28;20063;-72
2022/10/21 06:16:18;;;;;;;7.18;3.78;;;;;;;12.57;100.00;100538.75;5222915;28;20049;-72
2022/10/21 06:18:49;;;;;;;12.40;4.20;;;;;;;12.63;100.00;100531.81;5222607;28;20030;-72
2022/10/21 06:21:19;;;;;;;12.48;4.15;;;;;;;12.70;100.00;100543.47;5222946;28;20040;-72
2022/10/21 06:23:52;;;;;;;16.88;3.65;;;;;;;12.76;100.00;100539.22;5222780;28;20571;-73
2022/10/21 06:26:23;;;;;;;7.72;3.35;;;;;;;12.79;100.00;100536.13;5222867;28;20029;-72
2022/10/21 06:28:53;;;;;;;7.90;3.20;;;;;;;12.80;100.00;100544.03;5222520;28;20025;-72
2022/10/21 06:31:24;;;;;;;9.32;3.75;;;;;;;12.80;100.00;100544.03;5255080;28;20060;-72
2022/10/21 06:33:54;;;;;;;14.80;3.65;;;;;;;12.79;100.00;100541.53;5224436;28;20036;-72
2022/10/21 06:36:25;;;;;;;12.93;4.03;;;;;;;12.78;100.00;100545.25;5227105;28;20078;-71
2022/10/21 06:38:55;;;;;;;11.25;2.88;;;;;;;12.77;100.00;100552.47;5226352;28;20020;-72
2022/10/21 06:41:26;;;;;;;10.27;3.60;;;;;;;12.80;100.00;100554.81;5226855;28;20025;-73
2022/10/21 06:43:56;;;;;;;11.13;3.60;;;;;;;12.83;100.00;100554.41;5226707;28;20024;-73
2022/10/21 06:46:26;;;;;;;12.27;4.10;;;;;;;12.84;100.00;100555.25;5226357;28;20025;-73
2022/10/21 06:48:57;;;;;;;9.40;4.00;;;;;;;12.85;100.00;100565.84;5226207;28;20116;-72
2022/10/21 06:51:28;;;;;;;11.15;4.60;;;;;;;12.86;100.00;100572.91;5226401;28;20055;-72
2022/10/21 06:53:59;;;;;;;9.75;3.55;;;;;;;12.89;100.00;100579.75;5226488;28;20029;-73
2022/10/21 06:56:30;;;;;;;13.38;4.28;;;;;;;12.90;100.00;100589.50;5226490;28;20398;-72
2022/10/21 06:59:01;;;;;;;17.65;4.57;;;;;;;12.91;100.00;100585.81;5225559;28;20375;-72
2022/10/21 07:01:35;;;;;;;8.90;4.22;;;;;;;12.93;100.00;100592.66;5226068;28;20029;-71
2022/10/21 07:04:05;;;;;;;20.17;5.47;;;;;;;12.95;100.00;100592.44;5226557;28;20025;-73
2022/10/21 07:06:36;;;;;;;18.65;4.43;;;;;;;12.96;100.00;100594.16;5225865;28;20407;-74
2022/10/21 07:09:08;;;;;;;11.02;4.25;;;;;;;12.95;100.00;100598.69;5226109;28;20100;-75
2022/10/21 07:11:39;;;;;;;12.00;4.20;;;;;;;12.93;100.00;100598.03;5225777;28;20033;-75
2022/10/21 07:14:11;;;;;;;12.68;4.88;;;;;;;12.90;100.00;100598.44;5226139;28;20604;-75
2022/10/21 07:16:41;;;;;;;8.82;3.72;;;;;;;12.87;100.00;100598.78;5226181;28;20082;-75
2022/10/21 07:19:12;;;;;;;9.32;3.53;;;;;;;12.87;100.00;100597.97;5226044;28;20017;-76
2022/10/21 07:21:43;;;;;;;13.00;4.43;;;;;;;12.85;100.00;100591.91;5226117;28;20029;-74
2022/10/21 07:24:13;;;;;;;14.27;4.38;;;;;;;12.86;100.00;100599.81;5225805;28;20534;-74
2022/10/21 07:26:44;;;;;;;12.65;4.32;;;;;;;12.88;100.00;100597.75;5225685;28;20105;-73
2022/10/21 07:29:15;;;;;;;15.02;5.20;;;;;;;12.92;100.00;100599.06;5224039;28;20112;-73
2022/10/21 07:31:45;;;;;;;14.80;4.85;;;;;;;12.95;100.00;100601.41;5225685;28;20087;-73
2022/10/21 07:34:16;;;;;;;15.30;4.63;;;;;;;12.99;100.00;100598.31;5225490;28;20041;-73
2022/10/21 07:36:51;;;;;;;14.25;4.43;;;;;;;13.03;100.00;100610.38;5225370;28;20080;-73
2022/10/21 07:39:25;;;;;;;11.98;4.45;;;;;;;13.05;100.00;100617.25;5212477;28;20028;-73
2022/10/21 07:41:56;;;;;;;14.65;4.20;;;;;;;13.07;100.00;100623.28;5224299;28;20491;-73
2022/10/21 07:44:27;;;;;;;15.00;5.57;;;;;;;13.11;100.00;100627.28;5225400;28;20028;-73
2022/10/21 07:46:57;;;;;;;7.13;3.60;;;;;;;13.14;100.00;100637.66;5224132;28;20457;-73
2022/10/21 07:49:28;;;;;;;22.92;5.03;;;;;;;13.19;100.00;100637.09;5225965;28;20029;-73
2022/10/21 07:51:58;;;;;;;9.88;4.40;;;;;;;13.18;100.00;100643.50;5225558;28;20021;-73
2022/10/21 07:54:29;;;;;;;18.52;4.28;;;;;;;13.20;100.00;100628.84;5225335;28;20028;-73
2022/10/21 07:56:59;;;;;;;16.30;4.35;;;;;;;13.28;100.00;100640.56;5224649;28;20017;-73
2022/10/21 07:59:29;;;;;;;11.73;5.13;;;;;;;13.34;100.00;100642.47;5225048;28;20033;-73
2022/10/21 08:02:00;;;;;;;13.98;4.13;;;;;;;13.42;100.00;100647.78;5225120;28;20021;-73
2022/10/21 08:04:32;;;;;;;10.75;4.55;;;;;;;13.50;100.00;100642.25;5224066;28;20051;-73
2022/10/21 08:07:02;;;;;;;9.45;4.25;;;;;;;13.60;100.00;100650.88;5224628;28;20032;-73
2022/10/21 08:09:32;;;;;;;7.20;3.42;;;;;;;13.69;100.00;100655.13;5225242;28;20029;-74
2022/10/21 08:12:03;;;;;;;16.75;4.78;;;;;;;13.78;100.00;100660.41;5224900;28;20029;-74
2022/10/21 08:14:33;;;;;;;43.50;5.05;;;;;;;13.86;100.00;100657.59;5224908;28;20103;-74
2022/10/21 08:17:04;;;;;;;16.67;4.90;;;;;;;13.95;100.00;100661.81;5224535;28;20024;-74
2022/10/21 08:19:34;;;;;;;17.55;4.10;;;;;;;14.04;100.00;100659.81;5224998;28;20096;-73
2022/10/21 08:22:05;;;;;;;11.05;4.25;;;;;;;14.15;100.00;100670.06;5225086;28;20029;-74
2022/10/21 08:24:35;;;;;;;26.88;5.68;;;;;;;14.19;100.00;100656.00;5224878;28;20490;-75
2022/10/21 08:27:06;;;;;;;22.00;5.45;;;;;;;14.23;100.00;100659.16;5224108;28;20065;-73
2022/10/21 08:29:36;;;;;;;15.60;5.55;;;;;;;14.31;100.00;100660.88;5224989;28;20017;-73
2022/10/21 08:32:07;;;;;;;20.92;5.85;;;;;;;14.37;100.00;100662.81;5224601;28;20060;-73
2022/10/21 08:34:37;;;;;;;14.63;5.72;;;;;;;14.44;100.00;100661.00;5225000;28;20284;-73
2022/10/21 08:37:08;;;;;;;19.08;6.30;;;;;;;14.51;100.00;100661.91;5223978;28;20128;-74
2022/10/21 08:39:38;;;;;;;14.30;5.35;;;;;;;14.56;100.00;100656.75;5224772;28;20025;-73
2022/10/21 08:42:15;;;;;;;19.90;6.03;;;;;;;14.63;100.00;100656.81;5224461;28;20056;-73
2022/10/21 08:44:53;;;;;;;14.38;5.47;;;;;;;14.67;100.00;100658.09;5224749;28;20375;-73
2022/10/21 08:47:28;;;;;;;12.50;4.45;;;;;;;14.74;100.00;100664.34;5210663;28;20024;-72
2022/10/21 08:50:25;;;;;;;;;;;;;;;14.81;100.00;100657.13;5225277;28;20509;-72
2022/10/21 08:53:00;;;;;;;11.75;5.00;;;;;;;14.91;100.00;100663.00;5219402;28;20030;-73
2022/10/21 08:55:39;;;;;;;12.75;5.50;;;;;;;15.01;100.00;100665.34;5211472;28;20029;-74
2022/10/21 08:58:16;;;;;;;13.13;5.43;;;;;;;15.12;100.00;100664.78;5222648;28;20044;-73
2022/10/21 09:00:55;;;;;;;15.25;5.53;;;;;;;15.28;100.00;100674.41;5224303;28;20102;-74
2022/10/21 09:03:40;;;;;;;18.35;5.25;;;;;;;15.41;100.00;100685.28;5224169;28;20399;-73
2022/10/21 09:06:31;;;;;;;14.98;4.70;;;;;;;15.53;100.00;100682.84;5223808;28;20486;-73
2022/10/21 09:09:06;;;;;;;12.10;4.30;;;;;;;15.69;100.00;100685.19;5223730;28;20617;-72
2022/10/21 09:11:56;;;;;;;12.50;5.50;;;;;;;15.87;100.00;100694.63;5224257;28;20025;-72
2022/10/21 09:14:41;;;;;;;14.13;5.05;;;;;;;16.13;100.00;100689.25;5223621;28;20414;-72
2022/10/21 09:17:26;;;;;;;12.73;4.95;;;;;;;16.40;100.00;100681.13;5223598;28;20028;-72
2022/10/21 09:20:41;;;;;;;9.52;3.85;;;;;;;16.59;100.00;100683.00;5212158;28;20075;-73
2022/10/21 09:23:39;;;;;;;7.40;3.55;;;;;;;16.70;100.00;100692.38;5218557;28;20505;-74
2022/10/21 09:26:30;;;;;;;11.85;3.50;;;;;;;16.87;100.00;100690.06;5223572;28;20036;-73
2022/10/21 09:29:24;;;;;;;9.52;2.72;;;;;;;16.97;100.00;100704.03;5222883;28;20025;-72
2022/10/21 09:32:01;;;;;;;6.88;3.30;;;;;;;17.09;100.00;100694.22;5223416;28;20487;-73
2022/10/21 09:34:44;;;;;;;12.15;2.83;;;;;;;17.61;100.00;100686.91;5223873;28;20029;-73
2022/10/21 09:37:22;;;;;;;10.15;1.95;;;;;;;18.41;100.00;100691.84;5222630;28;20103;-73
2022/10/21 09:40:02;;;;;;;4.50;1.70;;;;;;;19.03;100.00;100692.78;5223837;28;20044;-73
2022/10/21 09:42:33;;;;;;;8.02;1.73;;;;;;;19.56;100.00;100684.78;5210746;28;20025;-73
2022/10/21 09:45:05;;;;;;;5.65;1.70;;;;;;;20.16;100.00;100681.25;5223766;28;20070;-73
2022/10/21 09:47:36;;;;;;;3.88;1.40;;;;;;;20.73;100.00;100670.66;5223053;28;20024;-73
2022/10/21 09:50:15;;;;;;;5.18;1.25;;;;;;;20.76;100.00;100677.56;5223670;28;20533;-73
2022/10/21 09:52:56;;;;;;;4.28;1.02;;;;;;;20.09;100.00;100675.09;5223754;28;20445;-73
2022/10/21 09:55:28;;;;;;;5.28;1.23;;;;;;;19.32;100.00;100675.69;5223526;28;20021;-74
2022/10/21 09:58:00;;;;;;;2.97;1.33;;;;;;;19.20;100.00;100673.97;5222588;28;20475;-74
2022/10/21 10:00:48;;;;;;;3.55;0.77;;;;;;;18.92;100.00;100685.34;5223541;28;20058;-74
2022/10/21 10:03:33;;;;;;;4.05;0.80;;;;;;;18.81;100.00;100685.03;5223408;28;20104;-75
2022/10/21 10:06:04;;;;;;;3.55;1.55;;;;;;;18.92;100.00;100682.63;5223677;28;20029;-75
2022/10/21 10:08:46;;;;;;;4.32;0.82;;;;;;;19.02;100.00;100682.94;5223955;28;20376;-76
2022/10/21 10:11:20;;;;;;;4.18;0.80;;;;;;;19.27;100.00;100670.09;5217699;28;20040;-76
2022/10/21 10:13:52;;;;;;;1.27;1.13;;;;;;;19.57;100.00;100674.75;5206292;28;20018;-75
2022/10/21 10:16:28;;;;;;;4.00;0.80;;;;;;;19.53;100.00;100662.66;5223919;28;20021;-75
2022/10/21 10:19:26;;;;;;;2.30;0.75;;;;;;;19.71;100.00;100665.38;5225310;28;20029;-75
2022/10/21 10:22:08;;;;;;;3.35;0.80;;;;;;;20.07;100.00;100669.03;5225682;28;20108;-75
2022/10/21 10:24:40;;;;;;;4.07;0.98;;;;;;;20.06;100.00;100667.38;5225784;28;20064;-75
2022/10/21 10:27:22;;;;;;;3.78;0.50;;;;;;;19.62;100.00;100662.13;5224459;28;20096;-75
2022/10/21 10:29:55;;;;;;;6.13;0.90;;;;;;;19.50;100.00;100679.44;5225852;28;20020;-75
2022/10/21 10:32:31;;;;;;;1.52;0.73;;;;;;;19.37;100.00;100688.59;5224930;28;20021;-76
2022/10/21 10:35:06;;;;;;;2.22;0.70;;;;;;;19.44;100.00;100681.19;5225818;28;20017;-76
2022/10/21 10:37:37;;;;;;;1.83;0.70;;;;;;;19.52;100.00;100689.03;5224583;28;20604;-76
2022/10/21 10:40:08;;;;;;;2.90;0.80;;;;;;;19.57;100.00;100701.94;5225214;28;20025;-73
2022/10/21 10:42:45;;;;;;;1.55;0.52;;;;;;;19.49;100.00;100697.66;5225046;28;20031;-73
2022/10/21 10:45:19;;;;;;;2.53;0.70;;;;;;;19.46;100.00;100702.72;5225102;28;20407;-73
2022/10/21 10:47:56;;;;;;;2.97;0.65;;;;;;;19.42;100.00;100692.28;5224800;28;20027;-74
2022/10/21 10:50:40;;;;;;;2.38;0.75;;;;;;;19.32;100.00;100689.28;5225254;28;20099;-74
2022/10/21 10:53:27;;;;;;;2.53;0.68;;;;;;;19.33;100.00;100695.56;5224767;28;20032;-74
2022/10/21 10:56:03;;;;;;;5.43;0.75;;;;;;;19.17;100.00;100698.88;5224056;28;20033;-73
2022/10/21 10:58:39;;;;;;;1.77;0.65;;;;;;;18.98;100.00;100689.91;5223777;28;20512;-73
2022/10/21 11:01:20;;;;;;;3.50;0.85;;;;;;;19.00;100.00;100685.88;5223603;28;20064;-73
2022/10/21 11:03:56;;;;;;;5.57;0.98;;;;;;;18.98;100.00;100685.28;5224359;28;20064;-76
2022/10/21 11:06:34;;;;;;;2.58;0.70;;;;;;;18.98;100.00;100700.78;5224551;28;20035;-75
2022/10/21 11:09:06;;;;;;;2.38;0.43;;;;;;;19.09;100.00;100695.41;5223860;28;20075;-75
2022/10/21 11:11:46;;;;;;;3.50;0.82;;;;;;;18.95;100.00;100702.03;5206528;28;20025;-75
2022/10/21 11:14:17;;;;;;;4.80;0.80;;;;;;;18.92;100.00;100709.81;5224550;28;20021;-76
2022/10/21 11:16:52;;;;;;;2.97;0.75;;;;;;;19.02;100.00;100705.50;5224251;28;20795;-76
2022/10/21 11:19:23;;;;;;;;;;;;;;;19.19;100.00;100711.19;5223871;28;20398;-73
2022/10/21 11:22:22;;;;;;;7.53;0.98;;;;;;;19.19;100.00;100708.50;5223859;28;19909;-73
2022/10/21 11:25:21;;;;;;;3.10;1.10;;;;;;;19.15;100.00;100704.56;5211794;28;20029;-73
2022/10/21 11:28:14;;;;;;;4.55;1.35;;;;;;;19.30;100.00;100696.00;5223348;28;20033;-73
2022/10/21 11:31:27;;;;;;;3.90;0.93;;;;;;;19.71;100.00;100699.91;5224567;28;20100;-72
2022/10/21 11:34:12;;;;;;;4.28;1.30;;;;;;;19.85;100.00;100691.34;5219746;28;20032;-73
2022/10/21 11:36:58;;;;;;;2.15;0.90;;;;;;;20.05;100.00;100691.06;5224274;28;20061;-73
2022/10/21 11:39:43;;;;;;;3.03;0.80;;;;;;;20.11;100.00;100679.22;5212766;28;20036;-75
2022/10/21 11:42:25;;;;;;;4.25;1.08;;;;;;;20.24;100.00;100694.53;5223543;28;20099;-74
2022/10/21 11:45:22;;;;;;;2.47;1.20;;;;;;;20.21;100.00;100691.44;5223768;28;20403;-73
2022/10/21 11:47:56;;;;;;;4.93;0.82;;;;;;;20.03;100.00;100685.03;5223816;28;20067;-74
2022/10/21 11:50:57;;;;;;;3.53;1.00;;;;;;;19.99;100.00;100688.44;5223635;28;20025;-73